sensor_id;sensor_type;location;lat;lon;timestamp;pressure;altitude;pressure_sealevel;temperature;humidity
70468;BME280;57934;51.532;7.684;2023-07-28T00:02:23;99321.22;;;16.38;100.00
70468;BME280;57934;51.532;7.684;2023-07-28T00:04:49;99317.16;;;16.31;100.00
70468;BME280;57934;51.532;7.684;2023-07-28T00:07:15;99317.72;;;16.33;100.00
70468;BME280;57934;51.532;7.684;2023-07-28T00:09:41;99322.00;;;16.39;100.00
70468;BME280;57934;51.532;7.684;2023-07-28T00:12:07;99314.81;;;16.34;100.00
70468;BME280;57934;51.532;7.684;2023-07-28T00:14:33;99309.97;;;16.31;100.00
70468;BME280;57934;51.532;7.684;2023-07-28T00:16:59;99319.06;;;16.35;100.00
70468;BME280;57934;51.532;7.684;2023-07-28T00:19:25;99303.16;;;16.40;100.00
70468;BME280;57934;51.532;7.684;2023-07-28T00:21:52;99314.50;;;16.31;100.00
70468;BME280;57934;51.532;7.684;2023-07-28T00:24:19;99313.50;;;16.37;100.00
70468;BME280;57934;51.532;7.684;2023-07-28T00:26:45;99312.44;;;16.38;100.00
70468;BME280;57934;51.532;7.684;2023-07-28T00:29:11;99311.06;;;16.35;100.00
70468;BME280;57934;51.532;7.684;2023-07-28T00:31:37;99315.06;;;16.33;100.00
70468;BME280;57934;51.532;7.684;2023-07-28T00:34:03;99303.66;;;16.37;100.00
70468;BME280;57934;51.532;7.684;2023-07-28T00:36:30;99307.38;;;16.36;100.00
70468;BME280;57934;51.532;7.684;2023-07-28T00:38:57;99311.84;;;16.31;100.00
70468;BME280;57934;51.532;7.684;2023-07-28T00:41:23;99308.38;;;16.30;100.00
70468;BME280;57934;51.532;7.684;2023-07-28T00:43:52;99302.00;;;16.31;100.00
70468;BME280;57934;51.532;7.684;2023-07-28T00:46:18;99308.47;;;16.40;100.00
70468;BME280;57934;51.532;7.684;2023-07-28T00:48:45;99305.72;;;16.25;100.00
70468;BME280;57934;51.532;7.684;2023-07-28T00:51:11;99311.03;;;16.25;100.00
70468;BME280;57934;51.532;7.684;2023-07-28T00:53:38;99306.53;;;16.31;100.00
70468;BME280;57934;51.532;7.684;2023-07-28T00:56:05;99296.16;;;16.29;100.00
70468;BME280;57934;51.532;7.684;2023-07-28T00:58:31;99301.47;;;16.29;100.00
70468;BME280;57934;51.532;7.684;2023-07-28T01:00:57;99304.66;;;16.31;100.00
70468;BME280;57934;51.532;7.684;2023-07-28T01:03:25;99304.84;;;16.19;100.00
70468;BME280;57934;51.532;7.684;2023-07-28T01:08:46;99295.66;;;16.37;100.00
70468;BME280;57934;51.532;7.684;2023-07-28T01:11:15;99303.03;;;16.25;100.00
70468;BME280;57934;51.532;7.684;2023-07-28T01:13:41;99295.88;;;16.26;100.00
70468;BME280;57934;51.532;7.684;2023-07-28T01:16:07;99296.38;;;16.22;100.00
70468;BME280;57934;51.532;7.684;2023-07-28T01:18:34;99301.94;;;16.21;100.00
70468;BME280;57934;51.532;7.684;2023-07-28T01:21:03;99299.81;;;16.23;100.00
70468;BME280;57934;51.532;7.684;2023-07-28T01:23:40;99295.78;;;16.15;100.00
70468;BME280;57934;51.532;7.684;2023-07-28T01:26:11;99303.00;;;16.20;100.00
70468;BME280;57934;51.532;7.684;2023-07-28T01:28:41;99299.06;;;16.28;100.00
70468;BME280;57934;51.532;7.684;2023-07-28T01:31:09;99293.66;;;16.17;100.00
70468;BME280;57934;51.532;7.684;2023-07-28T01:33:35;99282.84;;;16.29;100.00
70468;BME280;57934;51.532;7.684;2023-07-28T01:36:02;99287.63;;;16.27;100.00
70468;BME280;57934;51.532;7.684;2023-07-28T01:38:29;99285.44;;;16.19;100.00
70468;BME280;57934;51.532;7.684;2023-07-28T01:40:55;99284.09;;;16.21;100.00
70468;BME280;57934;51.532;7.684;2023-07-28T01:43:21;99295.56;;;16.22;100.00
70468;BME280;57934;51.532;7.684;2023-07-28T01:45:47;99288.03;;;16.14;100.00
70468;BME280;57934;51.532;7.684;2023-07-28T01:48:13;99290.50;;;16.20;100.00
70468;BME280;57934;51.532;7.684;2023-07-28T01:50:39;99294.22;;;16.19;100.00
70468;BME280;57934;51.532;7.684;2023-07-28T01:53:07;99292.63;;;16.18;100.00
70468;BME280;57934;51.532;7.684;2023-07-28T01:55:33;99290.53;;;16.26;100.00
70468;BME280;57934;51.532;7.684;2023-07-28T01:58:00;99300.31;;;16.20;100.00
70468;BME280;57934;51.532;7.684;2023-07-28T02:00:27;99298.00;;;16.29;100.00
70468;BME280;57934;51.532;7.684;2023-07-28T02:02:53;99303.06;;;16.30;100.00
70468;BME280;57934;51.532;7.684;2023-07-28T02:05:20;99305.47;;;16.32;100.00
70468;BME280;57934;51.532;7.684;2023-07-28T02:07:46;99316.34;;;16.25;100.00
70468;BME280;57934;51.532;7.684;2023-07-28T02:10:13;99318.53;;;16.33;100.00
70468;BME280;57934;51.532;7.684;2023-07-28T02:12:39;99315.28;;;16.26;100.00
70468;BME280;57934;51.532;7.684;2023-07-28T02:15:06;99320.34;;;16.28;100.00
70468;BME280;57934;51.532;7.684;2023-07-28T02:17:33;99312.84;;;16.19;100.00
70468;BME280;57934;51.532;7.684;2023-07-28T02:19:59;99308.66;;;16.29;100.00
70468;BME280;57934;51.532;7.684;2023-07-28T02:22:25;99310.84;;;16.37;100.00
70468;BME280;57934;51.532;7.684;2023-07-28T02:24:51;99314.28;;;16.32;100.00
70468;BME280;57934;51.532;7.684;2023-07-28T02:27:17;99316.44;;;16.40;100.00
70468;BME280;57934;51.532;7.684;2023-07-28T02:29:43;99316.94;;;16.32;100.00
70468;BME280;57934;51.532;7.684;2023-07-28T02:32:10;99308.38;;;16.30;100.00
70468;BME280;57934;51.532;7.684;2023-07-28T02:34:36;99311.25;;;16.23;100.00
70468;BME280;57934;51.532;7.684;2023-07-28T02:37:02;99312.13;;;16.29;100.00
70468;BME280;57934;51.532;7.684;2023-07-28T02:39:28;99313.72;;;16.30;100.00
70468;BME280;57934;51.532;7.684;2023-07-28T02:41:54;99318.53;;;16.33;100.00
70468;BME280;57934;51.532;7.684;2023-07-28T02:44:21;99315.31;;;16.31;100.00
70468;BME280;57934;51.532;7.684;2023-07-28T02:46:47;99314.56;;;16.36;100.00
70468;BME280;57934;51.532;7.684;2023-07-28T02:49:13;99321.72;;;16.35;100.00
70468;BME280;57934;51.532;7.684;2023-07-28T02:51:40;99318.53;;;16.33;100.00
70468;BME280;57934;51.532;7.684;2023-07-28T02:54:07;99324.38;;;16.35;100.00
70468;BME280;57934;51.532;7.684;2023-07-28T02:56:33;99331.56;;;16.35;100.00
70468;BME280;57934;51.532;7.684;2023-07-28T02:59:04;99330.81;;;16.39;100.00
70468;BME280;57934;51.532;7.684;2023-07-28T03:01:31;99339.84;;;16.38;100.00
70468;BME280;57934;51.532;7.684;2023-07-28T03:04:01;99335.59;;;16.37;100.00
70468;BME280;57934;51.532;7.684;2023-07-28T03:06:27;99338.97;;;16.28;100.00
70468;BME280;57934;51.532;7.684;2023-07-28T03:08:53;99341.41;;;16.34;100.00
70468;BME280;57934;51.532;7.684;2023-07-28T03:11:41;99336.16;;;16.44;100.00
70468;BME280;57934;51.532;7.684;2023-07-28T03:14:07;99340.13;;;16.42;100.00
70468;BME280;57934;51.532;7.684;2023-07-28T03:16:33;99337.75;;;16.40;100.00
70468;BME280;57934;51.532;7.684;2023-07-28T03:18:59;99344.63;;;16.36;100.00
70468;BME280;57934;51.532;7.684;2023-07-28T03:21:25;99344.03;;;16.29;100.00
70468;BME280;57934;51.532;7.684;2023-07-28T03:23:51;99351.03;;;16.40;100.00
70468;BME280;57934;51.532;7.684;2023-07-28T03:26:17;99351.25;;;16.34;100.00
70468;BME280;57934;51.532;7.684;2023-07-28T03:28:43;99348.88;;;16.37;100.00
70468;BME280;57934;51.532;7.684;2023-07-28T03:31:10;99345.16;;;16.38;100.00
70468;BME280;57934;51.532;7.684;2023-07-28T03:33:36;99348.03;;;16.32;100.00
70468;BME280;57934;51.532;7.684;2023-07-28T03:36:02;99350.41;;;16.28;100.00
70468;BME280;57934;51.532;7.684;2023-07-28T03:38:28;99346.94;;;16.28;100.00
70468;BME280;57934;51.532;7.684;2023-07-28T03:40:54;99354.72;;;16.34;100.00
70468;BME280;57934;51.532;7.684;2023-07-28T03:43:21;99350.97;;;16.30;100.00
70468;BME280;57934;51.532;7.684;2023-07-28T03:45:47;99345.34;;;16.27;100.00
70468;BME280;57934;51.532;7.684;2023-07-28T03:48:14;99343.53;;;16.32;100.00
70468;BME280;57934;51.532;7.684;2023-07-28T03:50:40;99346.44;;;16.31;100.00
70468;BME280;57934;51.532;7.684;2023-07-28T03:53:06;99354.69;;;16.29;100.00
70468;BME280;57934;51.532;7.684;2023-07-28T03:55:32;99351.53;;;16.32;100.00
70468;BME280;57934;51.532;7.684;2023-07-28T03:57:58;99349.91;;;16.31;100.00
70468;BME280;57934;51.532;7.684;2023-07-28T04:00:24;99360.53;;;16.31;100.00
70468;BME280;57934;51.532;7.684;2023-07-28T04:02:50;99361.03;;;16.28;100.00
70468;BME280;57934;51.532;7.684;2023-07-28T04:05:17;99356.06;;;16.37;100.00
70468;BME280;57934;51.532;7.684;2023-07-28T04:07:43;99357.97;;;16.41;100.00
70468;BME280;57934;51.532;7.684;2023-07-28T04:10:09;99348.31;;;16.35;100.00
70468;BME280;57934;51.532;7.684;2023-07-28T04:12:35;99357.63;;;16.33;100.00
70468;BME280;57934;51.532;7.684;2023-07-28T04:15:01;99366.16;;;16.35;100.00
70468;BME280;57934;51.532;7.684;2023-07-28T04:17:27;99364.63;;;16.44;100.00
70468;BME280;57934;51.532;7.684;2023-07-28T04:19:53;99363.03;;;16.43;100.00
70468;BME280;57934;51.532;7.684;2023-07-28T04:22:19;99366.53;;;16.49;100.00
70468;BME280;57934;51.532;7.684;2023-07-28T04:24:48;99366.03;;;16.52;100.00
70468;BME280;57934;51.532;7.684;2023-07-28T04:27:15;99364.88;;;16.42;100.00
70468;BME280;57934;51.532;7.684;2023-07-28T04:29:42;99365.47;;;16.50;100.00
70468;BME280;57934;51.532;7.684;2023-07-28T04:32:10;99362.81;;;16.50;100.00
70468;BME280;57934;51.532;7.684;2023-07-28T04:34:36;99368.13;;;16.50;100.00
70468;BME280;57934;51.532;7.684;2023-07-28T04:37:10;99371.16;;;16.63;100.00
70468;BME280;57934;51.532;7.684;2023-07-28T04:39:45;99373.50;;;16.55;100.00
70468;BME280;57934;51.532;7.684;2023-07-28T04:42:13;99378.84;;;16.60;100.00
70468;BME280;57934;51.532;7.684;2023-07-28T04:44:44;99384.00;;;16.72;100.00
70468;BME280;57934;51.532;7.684;2023-07-28T04:47:11;99380.88;;;16.75;100.00
70468;BME280;57934;51.532;7.684;2023-07-28T04:49:38;99381.22;;;16.56;100.00
70468;BME280;57934;51.532;7.684;2023-07-28T04:52:07;99382.38;;;16.65;100.00
70468;BME280;57934;51.532;7.684;2023-07-28T04:54:52;99386.13;;;16.69;100.00
70468;BME280;57934;51.532;7.684;2023-07-28T04:57:19;99389.56;;;16.70;100.00
70468;BME280;57934;51.532;7.684;2023-07-28T04:59:46;99388.59;;;16.76;100.00
70468;BME280;57934;51.532;7.684;2023-07-28T05:02:12;99379.88;;;16.86;100.00
70468;BME280;57934;51.532;7.684;2023-07-28T05:04:38;99377.72;;;16.83;100.00
70468;BME280;57934;51.532;7.684;2023-07-28T05:07:04;99374.03;;;16.89;100.00
70468;BME280;57934;51.532;7.684;2023-07-28T05:09:31;99385.13;;;16.76;100.00
70468;BME280;57934;51.532;7.684;2023-07-28T05:11:57;99384.41;;;16.85;100.00
70468;BME280;57934;51.532;7.684;2023-07-28T05:14:24;99382.56;;;16.91;100.00
70468;BME280;57934;51.532;7.684;2023-07-28T05:16:50;99374.84;;;16.89;100.00
70468;BME280;57934;51.532;7.684;2023-07-28T05:19:50;99383.94;;;16.99;100.00
70468;BME280;57934;51.532;7.684;2023-07-28T05:22:40;99386.63;;;17.04;100.00
70468;BME280;57934;51.532;7.684;2023-07-28T05:25:07;99388.28;;;17.15;100.00
70468;BME280;57934;51.532;7.684;2023-07-28T05:27:37;99392.59;;;17.21;100.00
70468;BME280;57934;51.532;7.684;2023-07-28T05:30:04;99382.47;;;17.23;100.00
70468;BME280;57934;51.532;7.684;2023-07-28T05:32:31;99396.91;;;17.27;100.00
70468;BME280;57934;51.532;7.684;2023-07-28T05:35:20;99392.59;;;17.26;100.00
70468;BME280;57934;51.532;7.684;2023-07-28T05:37:47;99394.53;;;17.36;100.00
70468;BME280;57934;51.532;7.684;2023-07-28T05:40:13;99386.47;;;17.21;100.00
70468;BME280;57934;51.532;7.684;2023-07-28T05:42:39;99400.34;;;17.28;100.00
70468;BME280;57934;51.532;7.684;2023-07-28T05:45:06;99400.09;;;17.29;100.00
70468;BME280;57934;51.532;7.684;2023-07-28T05:47:33;99397.94;;;17.21;100.00
70468;BME280;57934;51.532;7.684;2023-07-28T05:49:59;99403.84;;;17.33;100.00
70468;BME280;57934;51.532;7.684;2023-07-28T05:52:25;99402.28;;;17.48;100.00
70468;BME280;57934;51.532;7.684;2023-07-28T05:54:52;99399.44;;;17.64;100.00
70468;BME280;57934;51.532;7.684;2023-07-28T05:57:18;99399.72;;;17.63;100.00
70468;BME280;57934;51.532;7.684;2023-07-28T05:59:44;99404.00;;;17.69;100.00
70468;BME280;57934;51.532;7.684;2023-07-28T06:02:10;99408.34;;;17.96;100.00
70468;BME280;57934;51.532;7.684;2023-07-28T06:05:02;99407.59;;;18.16;100.00
70468;BME280;57934;51.532;7.684;2023-07-28T06:07:28;99415.59;;;18.21;100.00
70468;BME280;57934;51.532;7.684;2023-07-28T06:09:55;99425.25;;;18.47;100.00
70468;BME280;57934;51.532;7.684;2023-07-28T06:12:21;99422.03;;;18.55;100.00
70468;BME280;57934;51.532;7.684;2023-07-28T06:14:47;99422.31;;;18.49;100.00
70468;BME280;57934;51.532;7.684;2023-07-28T06:17:14;99424.19;;;18.43;100.00
70468;BME280;57934;51.532;7.684;2023-07-28T06:19:41;99426.06;;;18.48;100.00
70468;BME280;57934;51.532;7.684;2023-07-28T06:22:07;99425.50;;;18.41;100.00
70468;BME280;57934;51.532;7.684;2023-07-28T06:24:38;99431.66;;;18.51;100.00
70468;BME280;57934;51.532;7.684;2023-07-28T06:27:05;99435.38;;;18.45;100.00
70468;BME280;57934;51.532;7.684;2023-07-28T06:29:35;99437.53;;;18.48;100.00
70468;BME280;57934;51.532;7.684;2023-07-28T06:32:02;99443.41;;;18.55;100.00
70468;BME280;57934;51.532;7.684;2023-07-28T06:34:28;99441.28;;;18.57;100.00
70468;BME280;57934;51.532;7.684;2023-07-28T06:36:54;99447.13;;;18.44;100.00
70468;BME280;57934;51.532;7.684;2023-07-28T06:39:20;99446.59;;;18.52;100.00
70468;BME280;57934;51.532;7.684;2023-07-28T06:41:46;99442.88;;;18.64;100.00
70468;BME280;57934;51.532;7.684;2023-07-28T06:44:14;99453.81;;;18.52;100.00
70468;BME280;57934;51.532;7.684;2023-07-28T06:46:40;99451.16;;;18.47;100.00
70468;BME280;57934;51.532;7.684;2023-07-28T06:49:06;99456.19;;;18.38;100.00
70468;BME280;57934;51.532;7.684;2023-07-28T06:51:32;99462.63;;;18.63;100.00
70468;BME280;57934;51.532;7.684;2023-07-28T06:53:59;99453.84;;;18.57;100.00
70468;BME280;57934;51.532;7.684;2023-07-28T06:56:25;99460.25;;;18.61;100.00
70468;BME280;57934;51.532;7.684;2023-07-28T06:58:52;99457.31;;;18.83;100.00
70468;BME280;57934;51.532;7.684;2023-07-28T07:01:18;99468.81;;;18.78;100.00
70468;BME280;57934;51.532;7.684;2023-07-28T07:03:44;99467.22;;;18.93;100.00
70468;BME280;57934;51.532;7.684;2023-07-28T07:06:10;99473.06;;;19.10;100.00
70468;BME280;57934;51.532;7.684;2023-07-28T07:08:36;99471.19;;;19.11;99.56
70468;BME280;57934;51.532;7.684;2023-07-28T07:11:02;99473.06;;;18.95;99.32
70468;BME280;57934;51.532;7.684;2023-07-28T07:13:30;99476.00;;;19.14;100.00
70468;BME280;57934;51.532;7.684;2023-07-28T07:15:56;99481.31;;;19.39;99.75
70468;BME280;57934;51.532;7.684;2023-07-28T07:18:23;99480.47;;;19.54;98.95
70468;BME280;57934;51.532;7.684;2023-07-28T07:20:49;99479.88;;;19.77;97.79
70468;BME280;57934;51.532;7.684;2023-07-28T07:23:15;99479.53;;;19.94;97.43
70468;BME280;57934;51.532;7.684;2023-07-28T07:25:41;99482.56;;;19.72;96.04
70468;BME280;57934;51.532;7.684;2023-07-28T07:28:08;99483.84;;;19.90;96.15
70468;BME280;57934;51.532;7.684;2023-07-28T07:30:34;99483.38;;;19.73;95.55
70468;BME280;57934;51.532;7.684;2023-07-28T07:33:00;99495.47;;;19.40;96.97
70468;BME280;57934;51.532;7.684;2023-07-28T07:35:27;99499.78;;;19.30;97.46
70468;BME280;57934;51.532;7.684;2023-07-28T07:37:53;99497.66;;;19.07;98.12
70468;BME280;57934;51.532;7.684;2023-07-28T07:40:19;99503.53;;;19.04;99.32
70468;BME280;57934;51.532;7.684;2023-07-28T07:42:47;99507.03;;;19.10;99.89
70468;BME280;57934;51.532;7.684;2023-07-28T07:45:14;99504.84;;;19.22;98.73
70468;BME280;57934;51.532;7.684;2023-07-28T07:47:41;99514.22;;;19.35;99.04
70468;BME280;57934;51.532;7.684;2023-07-28T07:50:09;99508.28;;;19.48;98.08
70468;BME280;57934;51.532;7.684;2023-07-28T07:52:36;99512.28;;;19.61;96.91
70468;BME280;57934;51.532;7.684;2023-07-28T07:55:03;99510.16;;;19.63;97.65
70468;BME280;57934;51.532;7.684;2023-07-28T07:57:30;99499.91;;;19.90;94.98
70468;BME280;57934;51.532;7.684;2023-07-28T07:59:59;99503.44;;;19.65;95.58
70468;BME280;57934;51.532;7.684;2023-07-28T08:02:25;99510.69;;;19.60;95.44
70468;BME280;57934;51.532;7.684;2023-07-28T08:04:52;99505.63;;;19.43;96.46
70468;BME280;57934;51.532;7.684;2023-07-28T08:07:20;99510.16;;;19.47;96.75
70468;BME280;57934;51.532;7.684;2023-07-28T08:09:46;99511.78;;;19.48;97.55
70468;BME280;57934;51.532;7.684;2023-07-28T08:12:13;99506.38;;;19.69;96.50
70468;BME280;57934;51.532;7.684;2023-07-28T08:14:41;99512.50;;;19.79;96.51
70468;BME280;57934;51.532;7.684;2023-07-28T08:17:08;99503.88;;;19.98;96.02
70468;BME280;57934;51.532;7.684;2023-07-28T08:19:34;99511.38;;;19.96;95.05
70468;BME280;57934;51.532;7.684;2023-07-28T08:22:01;99506.22;;;20.59;93.86
70468;BME280;57934;51.532;7.684;2023-07-28T08:24:29;99509.59;;;21.09;90.54
70468;BME280;57934;51.532;7.684;2023-07-28T08:26:55;99504.72;;;20.43;90.15
70468;BME280;57934;51.532;7.684;2023-07-28T08:29:21;99508.59;;;20.66;90.35
70468;BME280;57934;51.532;7.684;2023-07-28T08:31:47;99516.25;;;20.38;91.21
70468;BME280;57934;51.532;7.684;2023-07-28T08:34:14;99524.38;;;20.23;92.38
70468;BME280;57934;51.532;7.684;2023-07-28T08:36:41;99528.19;;;20.07;92.53
70468;BME280;57934;51.532;7.684;2023-07-28T08:39:07;99534.78;;;20.24;93.62
70468;BME280;57934;51.532;7.684;2023-07-28T08:41:35;99531.66;;;20.12;92.97
70468;BME280;57934;51.532;7.684;2023-07-28T08:44:02;99527.50;;;20.35;91.83
70468;BME280;57934;51.532;7.684;2023-07-28T08:46:29;99528.28;;;20.41;91.57
70468;BME280;57934;51.532;7.684;2023-07-28T08:48:56;99535.34;;;20.21;91.04
70468;BME280;57934;51.532;7.684;2023-07-28T08:51:22;99539.44;;;20.03;91.83
70468;BME280;57934;51.532;7.684;2023-07-28T08:53:49;99544.78;;;20.09;92.04
70468;BME280;57934;51.532;7.684;2023-07-28T08:56:15;99542.69;;;19.95;93.10
70468;BME280;57934;51.532;7.684;2023-07-28T08:58:41;99557.16;;;19.94;93.64
70468;BME280;57934;51.532;7.684;2023-07-28T09:01:07;99550.47;;;19.92;93.65
70468;BME280;57934;51.532;7.684;2023-07-28T09:03:33;99545.09;;;19.97;93.49
70468;BME280;57934;51.532;7.684;2023-07-28T09:06:03;99555.25;;;20.05;92.76
70468;BME280;57934;51.532;7.684;2023-07-28T09:08:32;99560.06;;;20.08;92.20
70468;BME280;57934;51.532;7.684;2023-07-28T09:11:02;99552.19;;;20.27;91.35
70468;BME280;57934;51.532;7.684;2023-07-28T09:13:38;99554.75;;;20.97;88.75
70468;BME280;57934;51.532;7.684;2023-07-28T09:16:05;99552.72;;;21.47;86.38
70468;BME280;57934;51.532;7.684;2023-07-28T09:18:41;99552.41;;;21.78;83.67
70468;BME280;57934;51.532;7.684;2023-07-28T09:21:16;99554.00;;;22.27;81.52
70468;BME280;57934;51.532;7.684;2023-07-28T09:23:42;99546.09;;;22.54;81.48
70468;BME280;57934;51.532;7.684;2023-07-28T09:26:08;99546.81;;;22.60;80.52
70468;BME280;57934;51.532;7.684;2023-07-28T09:28:39;99545.06;;;22.31;79.61
70468;BME280;57934;51.532;7.684;2023-07-28T09:31:05;99553.13;;;22.88;79.50
70468;BME280;57934;51.532;7.684;2023-07-28T09:33:32;99552.91;;;22.04;81.60
70468;BME280;57934;51.532;7.684;2023-07-28T09:38:40;99554.19;;;21.87;81.96
70468;BME280;57934;51.532;7.684;2023-07-28T09:41:08;99558.06;;;21.76;83.09
70468;BME280;57934;51.532;7.684;2023-07-28T09:43:40;99565.13;;;21.67;82.75
70468;BME280;57934;51.532;7.684;2023-07-28T09:46:09;99556.75;;;21.44;84.60
70468;BME280;57934;51.532;7.684;2023-07-28T09:48:37;99557.19;;;21.57;83.29
70468;BME280;57934;51.532;7.684;2023-07-28T09:51:12;99554.78;;;22.03;80.91
70468;BME280;57934;51.532;7.684;2023-07-28T09:53:44;99548.34;;;22.47;77.90
70468;BME280;57934;51.532;7.684;2023-07-28T09:56:14;99548.28;;;22.71;77.95
70468;BME280;57934;51.532;7.684;2023-07-28T09:58:49;99554.03;;;22.65;78.48
70468;BME280;57934;51.532;7.684;2023-07-28T10:01:17;99553.97;;;23.21;76.82
70468;BME280;57934;51.532;7.684;2023-07-28T10:03:44;99562.75;;;23.73;73.32
70468;BME280;57934;51.532;7.684;2023-07-28T10:06:11;99553.47;;;25.16;70.50
70468;BME280;57934;51.532;7.684;2023-07-28T10:08:37;99548.09;;;25.16;67.23
70468;BME280;57934;51.532;7.684;2023-07-28T10:11:04;99552.06;;;25.18;69.05
70468;BME280;57934;51.532;7.684;2023-07-28T10:13:40;99539.13;;;25.29;67.79
70468;BME280;57934;51.532;7.684;2023-07-28T10:16:09;99544.34;;;25.03;67.95
70468;BME280;57934;51.532;7.684;2023-07-28T10:18:36;99545.31;;;26.18;64.28
70468;BME280;57934;51.532;7.684;2023-07-28T10:21:16;99548.59;;;25.89;65.05
70468;BME280;57934;51.532;7.684;2023-07-28T10:23:44;99543.94;;;26.99;61.63
70468;BME280;57934;51.532;7.684;2023-07-28T10:26:10;99560.88;;;26.04;62.50
70468;BME280;57934;51.532;7.684;2023-07-28T10:28:38;99548.50;;;26.11;62.20
70468;BME280;57934;51.532;7.684;2023-07-28T10:31:08;99552.00;;;26.12;62.13
70468;BME280;57934;51.532;7.684;2023-07-28T10:33:38;99551.50;;;25.61;65.20
70468;BME280;57934;51.532;7.684;2023-07-28T10:41:26;99553.50;;;24.57;69.70
70468;BME280;57934;51.532;7.684;2023-07-28T10:43:52;99550.75;;;26.27;64.90
70468;BME280;57934;51.532;7.684;2023-07-28T10:46:20;99549.66;;;26.28;62.91
70468;BME280;57934;51.532;7.684;2023-07-28T10:48:48;99558.75;;;25.83;64.50
70468;BME280;57934;51.532;7.684;2023-07-28T10:51:23;99556.22;;;25.87;64.71
70468;BME280;57934;51.532;7.684;2023-07-28T10:53:57;99554.44;;;25.20;66.30
70468;BME280;57934;51.532;7.684;2023-07-28T10:56:24;99567.03;;;23.74;72.52
70468;BME280;57934;51.532;7.684;2023-07-28T10:59:01;99569.94;;;24.19;72.57
70468;BME280;57934;51.532;7.684;2023-07-28T11:01:32;99561.81;;;24.33;71.23
70468;BME280;57934;51.532;7.684;2023-07-28T11:04:26;99565.41;;;24.15;70.38
70468;BME280;57934;51.532;7.684;2023-07-28T11:06:52;99573.00;;;24.26;70.10
70468;BME280;57934;51.532;7.684;2023-07-28T11:09:21;99572.28;;;24.48;69.32
70468;BME280;57934;51.532;7.684;2023-07-28T11:11:49;99562.03;;;24.50;68.60
70468;BME280;57934;51.532;7.684;2023-07-28T11:14:16;99576.22;;;24.79;66.68
70468;BME280;57934;51.532;7.684;2023-07-28T11:16:43;99569.34;;;24.09;68.03
70468;BME280;57934;51.532;7.684;2023-07-28T11:19:16;99582.56;;;23.17;71.45
70468;BME280;57934;51.532;7.684;2023-07-28T11:21:45;99573.03;;;23.06;72.80
70468;BME280;57934;51.532;7.684;2023-07-28T11:24:21;99575.16;;;22.90;74.12
70468;BME280;57934;51.532;7.684;2023-07-28T11:26:48;99589.09;;;22.54;74.86
70468;BME280;57934;51.532;7.684;2023-07-28T11:29:15;99593.16;;;22.52;76.84
70468;BME280;57934;51.532;7.684;2023-07-28T11:31:41;99593.97;;;22.52;76.57
70468;BME280;57934;51.532;7.684;2023-07-28T11:34:17;99590.47;;;23.08;75.61
70468;BME280;57934;51.532;7.684;2023-07-28T11:36:44;99586.59;;;23.47;72.64
70468;BME280;57934;51.532;7.684;2023-07-28T11:39:10;99591.88;;;23.71;71.51
70468;BME280;57934;51.532;7.684;2023-07-28T11:41:37;99580.56;;;24.38;68.71
70468;BME280;57934;51.532;7.684;2023-07-28T11:44:04;99589.66;;;24.56;66.80
70468;BME280;57934;51.532;7.684;2023-07-28T11:46:42;99587.47;;;25.17;65.22
70468;BME280;57934;51.532;7.684;2023-07-28T11:49:12;99587.44;;;25.39;64.18
70468;BME280;57934;51.532;7.684;2023-07-28T11:51:40;99580.06;;;25.54;62.59
70468;BME280;57934;51.532;7.684;2023-07-28T11:54:13;99581.44;;;25.42;62.69
70468;BME280;57934;51.532;7.684;2023-07-28T11:56:44;99577.09;;;25.33;63.08
70468;BME280;57934;51.532;7.684;2023-07-28T11:59:11;99572.31;;;25.61;63.05
70468;BME280;57934;51.532;7.684;2023-07-28T12:01:53;99577.69;;;25.52;63.09
70468;BME280;57934;51.532;7.684;2023-07-28T12:04:28;99582.66;;;25.36;62.76
70468;BME280;57934;51.532;7.684;2023-07-28T12:09:47;99582.25;;;24.62;65.91
70468;BME280;57934;51.532;7.684;2023-07-28T12:12:16;99588.47;;;24.21;67.94
70468;BME280;57934;51.532;7.684;2023-07-28T12:14:43;99587.88;;;24.51;68.38
70468;BME280;57934;51.532;7.684;2023-07-28T12:17:16;99575.78;;;25.30;65.52
70468;BME280;57934;51.532;7.684;2023-07-28T12:22:25;99577.75;;;24.93;66.06
70468;BME280;57934;51.532;7.684;2023-07-28T12:24:51;99575.31;;;24.19;66.94
70468;BME280;57934;51.532;7.684;2023-07-28T12:27:17;99570.59;;;24.52;67.20
70468;BME280;57934;51.532;7.684;2023-07-28T12:29:43;99569.72;;;24.29;66.49
70468;BME280;57934;51.532;7.684;2023-07-28T12:32:09;99572.22;;;24.26;67.03
70468;BME280;57934;51.532;7.684;2023-07-28T12:34:35;99565.72;;;24.13;68.47
70468;BME280;57934;51.532;7.684;2023-07-28T12:37:02;99576.50;;;24.27;69.30
70468;BME280;57934;51.532;7.684;2023-07-28T12:39:28;99576.31;;;24.10;67.75
70468;BME280;57934;51.532;7.684;2023-07-28T12:41:54;99570.81;;;24.79;67.43
70468;BME280;57934;51.532;7.684;2023-07-28T12:44:21;99570.13;;;24.73;66.46
70468;BME280;57934;51.532;7.684;2023-07-28T12:46:47;99588.38;;;24.26;66.25
70468;BME280;57934;51.532;7.684;2023-07-28T12:49:13;99579.59;;;23.79;68.66
70468;BME280;57934;51.532;7.684;2023-07-28T12:51:40;99575.13;;;24.02;68.66
70468;BME280;57934;51.532;7.684;2023-07-28T12:54:07;99586.16;;;24.28;68.27
70468;BME280;57934;51.532;7.684;2023-07-28T12:56:33;99586.00;;;23.97;67.85
70468;BME280;57934;51.532;7.684;2023-07-28T12:58:59;99580.13;;;23.81;69.37
70468;BME280;57934;51.532;7.684;2023-07-28T13:01:25;99587.06;;;23.68;70.61
70468;BME280;57934;51.532;7.684;2023-07-28T13:03:53;99582.56;;;23.64;70.39
70468;BME280;57934;51.532;7.684;2023-07-28T13:06:19;99579.47;;;23.56;70.69
70468;BME280;57934;51.532;7.684;2023-07-28T13:08:45;99581.28;;;23.75;71.05
70468;BME280;57934;51.532;7.684;2023-07-28T13:11:12;99588.72;;;23.50;71.16
70468;BME280;57934;51.532;7.684;2023-07-28T13:13:41;99583.69;;;23.90;71.24
70468;BME280;57934;51.532;7.684;2023-07-28T13:16:07;99588.59;;;24.02;69.12